PWSweather.com
Personal Weather Stations
Station Observations
OBSERWACJEMETEO
Skórowo, SkorowoPL 76-230

SkórowoSkorowoPL 76-230

Lat: 54.5030556, Lon: 17.5277777

Elevation: 77

Station Type: WH2080

http://obserwacjemeteo.eu/

High Low Average
Temperature 68.5°F20.3°C 51.8°F11.0°C 56.4°F13.6°C
Dew Point 55.0°F12.8°C 50.9°F10.5°C 52.9°F11.6°C
Winds 4.5 mph 7.2 kmh 0.7 mph 1.1 kmh 2.0 mph E3.2 kmh E
Wind Gusts 7.6 mph12.2 kmh 2.2 mph3.5 kmh 4.0 mph6.4 kmh
Humidity 99% 60% 89%
Pressure 29.73 in1006.8 mb 29.30 in992.2 mb -
Precipitation 0.00 in0.0 mm - -
Hour Temp Dew Point Humidity Winds Wind Gusts Pressure Precip Precip Rate Daily Precip Total
12:00 AM 52.0°F11.1°C 51.2°F10.7°C 97% 2.2 mph E3.5 kmh E 3.1 mph5.0 kmh 29.73 in1006.8 mb 0.00 in0.0 mm 0.00 in0.0 mm 0.00 in0.0 mm
12:10 AM 52.0°F11.1°C 51.2°F10.7°C 97% 1.6 mph E2.6 kmh E 3.8 mph6.1 kmh 29.73 in1006.8 mb 0.00 in0.0 mm 0.00 in0.0 mm 0.00 in0.0 mm
12:20 AM 52.0°F11.1°C 51.2°F10.7°C 97% 2.2 mph E3.5 kmh E 3.1 mph5.0 kmh 29.73 in1006.8 mb 0.00 in0.0 mm 0.00 in0.0 mm 0.00 in0.0 mm
12:30 AM 52.0°F11.1°C 51.2°F10.7°C 97% 2.2 mph ENE3.5 kmh ENE 3.8 mph6.1 kmh 29.73 in1006.8 mb 0.00 in0.0 mm 0.00 in0.0 mm 0.00 in0.0 mm
12:40 AM 52.0°F11.1°C 51.2°F10.7°C 97% 2.2 mph E3.5 kmh E 3.8 mph6.1 kmh 29.73 in1006.8 mb 0.00 in0.0 mm 0.00 in0.0 mm 0.00 in0.0 mm
12:50 AM 52.0°F11.1°C 51.2°F10.7°C 97% 2.2 mph E3.5 kmh E 3.8 mph6.1 kmh 29.72 in1006.4 mb 0.00 in0.0 mm 0.00 in0.0 mm 0.00 in0.0 mm
01:00 AM 52.0°F11.1°C 51.2°F10.7°C 97% 2.2 mph E3.5 kmh E 3.8 mph6.1 kmh 29.72 in1006.4 mb 0.00 in0.0 mm 0.00 in0.0 mm 0.00 in0.0 mm
01:10 AM 52.0°F11.1°C 51.2°F10.7°C 97% 2.2 mph E3.5 kmh E 3.8 mph6.1 kmh 29.72 in1006.4 mb 0.00 in0.0 mm 0.00 in0.0 mm 0.00 in0.0 mm
01:20 AM 52.0°F11.1°C 51.2°F10.7°C 97% 1.6 mph ENE2.6 kmh ENE 3.1 mph5.0 kmh 29.71 in1006.1 mb 0.00 in0.0 mm 0.00 in0.0 mm 0.00 in0.0 mm
01:30 AM 51.8°F11.0°C 51.0°F10.6°C 97% 1.6 mph NE2.6 kmh NE 3.1 mph5.0 kmh 29.71 in1006.1 mb 0.00 in0.0 mm 0.00 in0.0 mm 0.00 in0.0 mm
01:40 AM 51.8°F11.0°C 51.3°F10.7°C 98% 1.6 mph E2.6 kmh E 3.8 mph6.1 kmh 29.71 in1006.1 mb 0.00 in0.0 mm 0.00 in0.0 mm 0.00 in0.0 mm
01:50 AM 51.8°F11.0°C 51.3°F10.7°C 98% 2.2 mph E3.5 kmh E 3.8 mph6.1 kmh 29.70 in1005.8 mb 0.00 in0.0 mm 0.00 in0.0 mm 0.00 in0.0 mm
02:00 AM 51.8°F11.0°C 51.3°F10.7°C 98% 2.2 mph E3.5 kmh E 3.8 mph6.1 kmh 29.70 in1005.8 mb 0.00 in0.0 mm 0.00 in0.0 mm 0.00 in0.0 mm
02:10 AM 51.8°F11.0°C 51.3°F10.7°C 98% 2.2 mph E3.5 kmh E 3.8 mph6.1 kmh 29.70 in1005.8 mb 0.00 in0.0 mm 0.00 in0.0 mm 0.00 in0.0 mm
02:20 AM 52.2°F11.2°C 51.6°F10.9°C 98% 2.2 mph E3.5 kmh E 4.5 mph7.2 kmh 29.70 in1005.8 mb 0.00 in0.0 mm 0.00 in0.0 mm 0.00 in0.0 mm
02:30 AM 52.5°F11.4°C 52.3°F11.3°C 99% 2.2 mph E3.5 kmh E 3.8 mph6.1 kmh 29.69 in1005.4 mb 0.00 in0.0 mm 0.00 in0.0 mm 0.00 in0.0 mm
02:40 AM 52.3°F11.3°C 51.8°F11.0°C 98% 2.2 mph ENE3.5 kmh ENE 3.8 mph6.1 kmh 29.68 in1005.1 mb 0.00 in0.0 mm 0.00 in0.0 mm 0.00 in0.0 mm
02:50 AM 52.5°F11.4°C 52.0°F11.1°C 98% 2.2 mph E3.5 kmh E 4.5 mph7.2 kmh 29.68 in1005.1 mb 0.00 in0.0 mm 0.00 in0.0 mm 0.00 in0.0 mm
03:00 AM 52.5°F11.4°C 52.0°F11.1°C 98% 3.1 mph E5.0 kmh E 3.8 mph6.1 kmh 29.68 in1005.1 mb 0.00 in0.0 mm 0.00 in0.0 mm 0.00 in0.0 mm
03:10 AM 52.7°F11.5°C 52.2°F11.2°C 98% 2.2 mph E3.5 kmh E 3.8 mph6.1 kmh 29.68 in1005.1 mb 0.00 in0.0 mm 0.00 in0.0 mm 0.00 in0.0 mm
03:20 AM 52.9°F11.6°C 52.3°F11.3°C 98% 2.2 mph E3.5 kmh E 4.5 mph7.2 kmh 29.68 in1005.1 mb 0.00 in0.0 mm 0.00 in0.0 mm 0.00 in0.0 mm
03:30 AM 53.1°F11.7°C 52.5°F11.4°C 98% 2.2 mph ENE3.5 kmh ENE 4.5 mph7.2 kmh 29.68 in1005.1 mb 0.00 in0.0 mm 0.00 in0.0 mm 0.00 in0.0 mm
03:40 AM 53.4°F11.9°C 52.9°F11.6°C 98% 2.2 mph E3.5 kmh E 4.5 mph7.2 kmh 29.68 in1005.1 mb 0.00 in0.0 mm 0.00 in0.0 mm 0.00 in0.0 mm
03:50 AM 53.6°F12.0°C 53.1°F11.7°C 98% 2.2 mph E3.5 kmh E 3.8 mph6.1 kmh 29.68 in1005.1 mb 0.00 in0.0 mm 0.00 in0.0 mm 0.00 in0.0 mm
04:00 AM 53.8°F12.1°C 53.2°F11.8°C 98% 2.2 mph ESE3.5 kmh ESE 4.5 mph7.2 kmh 29.68 in1005.1 mb 0.00 in0.0 mm 0.00 in0.0 mm 0.00 in0.0 mm
04:10 AM 53.8°F12.1°C 53.0°F11.7°C 97% 3.1 mph E5.0 kmh E 4.5 mph7.2 kmh 29.68 in1005.1 mb 0.00 in0.0 mm 0.00 in0.0 mm 0.00 in0.0 mm
04:20 AM 53.8°F12.1°C 53.2°F11.8°C 98% 1.6 mph E2.6 kmh E 4.5 mph7.2 kmh 29.67 in1004.7 mb 0.00 in0.0 mm 0.00 in0.0 mm 0.00 in0.0 mm
04:30 AM 53.6°F12.0°C 53.1°F11.7°C 98% 1.6 mph E2.6 kmh E 3.8 mph6.1 kmh 29.67 in1004.7 mb 0.00 in0.0 mm 0.00 in0.0 mm 0.00 in0.0 mm
04:40 AM 53.6°F12.0°C 53.1°F11.7°C 98% 2.2 mph ENE3.5 kmh ENE 3.8 mph6.1 kmh 29.68 in1005.1 mb 0.00 in0.0 mm 0.00 in0.0 mm 0.00 in0.0 mm
04:50 AM 53.8°F12.1°C 53.2°F11.8°C 98% 2.2 mph E3.5 kmh E 3.8 mph6.1 kmh 29.67 in1004.7 mb 0.00 in0.0 mm 0.00 in0.0 mm 0.00 in0.0 mm
05:00 AM 54.0°F12.2°C 53.4°F11.9°C 98% 1.6 mph E2.6 kmh E 3.1 mph5.0 kmh 29.67 in1004.7 mb 0.00 in0.0 mm 0.00 in0.0 mm 0.00 in0.0 mm
05:10 AM 54.1°F12.3°C 53.9°F12.2°C 99% 2.2 mph E3.5 kmh E 3.8 mph6.1 kmh 29.66 in1004.4 mb 0.00 in0.0 mm 0.00 in0.0 mm 0.00 in0.0 mm
05:20 AM 53.8°F12.1°C 53.2°F11.8°C 98% 1.6 mph E2.6 kmh E 4.5 mph7.2 kmh 29.66 in1004.4 mb 0.00 in0.0 mm 0.00 in0.0 mm 0.00 in0.0 mm
05:30 AM 54.0°F12.2°C 53.4°F11.9°C 98% 2.2 mph E3.5 kmh E 3.8 mph6.1 kmh 29.67 in1004.7 mb 0.00 in0.0 mm 0.00 in0.0 mm 0.00 in0.0 mm
05:40 AM 54.1°F12.3°C 53.6°F12.0°C 98% 1.6 mph E2.6 kmh E 3.1 mph5.0 kmh 29.66 in1004.4 mb 0.00 in0.0 mm 0.00 in0.0 mm 0.00 in0.0 mm
05:50 AM 54.3°F12.4°C 53.8°F12.1°C 98% 1.6 mph E2.6 kmh E 3.8 mph6.1 kmh 29.67 in1004.7 mb 0.00 in0.0 mm 0.00 in0.0 mm 0.00 in0.0 mm
06:00 AM 54.5°F12.5°C 53.1°F11.7°C 95% 1.6 mph E2.6 kmh E 3.1 mph5.0 kmh 29.66 in1004.4 mb 0.00 in0.0 mm 0.00 in0.0 mm 0.00 in0.0 mm
06:10 AM 54.5°F12.5°C 53.1°F11.7°C 95% 1.6 mph S2.6 kmh S 3.8 mph6.1 kmh 29.67 in1004.7 mb 0.00 in0.0 mm 0.00 in0.0 mm 0.00 in0.0 mm
06:20 AM 54.7°F12.6°C 53.3°F11.8°C 95% 0.7 mph ESE1.1 kmh ESE 3.1 mph5.0 kmh 29.66 in1004.4 mb 0.00 in0.0 mm 0.00 in0.0 mm 0.00 in0.0 mm
06:30 AM 54.7°F12.6°C 53.0°F11.7°C 94% 1.6 mph E2.6 kmh E 2.2 mph3.5 kmh 29.66 in1004.4 mb 0.00 in0.0 mm 0.00 in0.0 mm 0.00 in0.0 mm
06:40 AM 54.7°F12.6°C 53.0°F11.7°C 94% 1.6 mph ENE2.6 kmh ENE 2.2 mph3.5 kmh 29.66 in1004.4 mb 0.00 in0.0 mm 0.00 in0.0 mm 0.00 in0.0 mm
06:50 AM 54.9°F12.7°C 53.2°F11.8°C 94% 1.6 mph ENE2.6 kmh ENE 3.1 mph5.0 kmh 29.66 in1004.4 mb 0.00 in0.0 mm 0.00 in0.0 mm 0.00 in0.0 mm
07:00 AM 55.0°F12.8°C 53.1°F11.7°C 93% 1.6 mph ENE2.6 kmh ENE 3.1 mph5.0 kmh 29.65 in1004.1 mb 0.00 in0.0 mm 0.00 in0.0 mm 0.00 in0.0 mm
07:10 AM 55.0°F12.8°C 52.8°F11.6°C 92% 2.2 mph NE3.5 kmh NE 3.1 mph5.0 kmh 29.65 in1004.1 mb 0.00 in0.0 mm 0.00 in0.0 mm 0.00 in0.0 mm
07:20 AM 55.6°F13.1°C 53.3°F11.8°C 92% 1.6 mph ENE2.6 kmh ENE 3.8 mph6.1 kmh 29.65 in1004.1 mb 0.00 in0.0 mm 0.00 in0.0 mm 0.00 in0.0 mm
07:30 AM 55.9°F13.3°C 53.4°F11.9°C 91% 1.6 mph E2.6 kmh E 3.8 mph6.1 kmh 29.65 in1004.1 mb 0.00 in0.0 mm 0.00 in0.0 mm 0.00 in0.0 mm
07:40 AM 56.1°F13.4°C 53.2°F11.8°C 90% 1.6 mph E2.6 kmh E 5.4 mph8.7 kmh 29.65 in1004.1 mb 0.00 in0.0 mm 0.00 in0.0 mm 0.00 in0.0 mm
07:50 AM 56.8°F13.8°C 53.6°F12.0°C 89% 1.6 mph E2.6 kmh E 3.8 mph6.1 kmh 29.65 in1004.1 mb 0.00 in0.0 mm 0.00 in0.0 mm 0.00 in0.0 mm
08:00 AM 57.2°F14.0°C 53.7°F12.1°C 88% 3.1 mph ENE5.0 kmh ENE 3.8 mph6.1 kmh 29.65 in1004.1 mb 0.00 in0.0 mm 0.00 in0.0 mm 0.00 in0.0 mm
08:10 AM 57.7°F14.3°C 53.6°F12.0°C 86% 2.2 mph E3.5 kmh E 3.8 mph6.1 kmh 29.65 in1004.1 mb 0.00 in0.0 mm 0.00 in0.0 mm 0.00 in0.0 mm
08:20 AM 57.9°F14.4°C 53.4°F11.9°C 85% 2.2 mph E3.5 kmh E 4.5 mph7.2 kmh 29.65 in1004.1 mb 0.00 in0.0 mm 0.00 in0.0 mm 0.00 in0.0 mm
08:30 AM 58.5°F14.7°C 53.7°F12.1°C 84% 1.6 mph E2.6 kmh E 3.8 mph6.1 kmh 29.65 in1004.1 mb 0.00 in0.0 mm 0.00 in0.0 mm 0.00 in0.0 mm
08:40 AM 59.0°F15.0°C 53.9°F12.2°C 83% 2.2 mph E3.5 kmh E 4.5 mph7.2 kmh 29.65 in1004.1 mb 0.00 in0.0 mm 0.00 in0.0 mm 0.00 in0.0 mm
08:50 AM 60.4°F15.8°C 54.6°F12.6°C 81% 3.1 mph E5.0 kmh E 5.4 mph8.7 kmh 29.65 in1004.1 mb 0.00 in0.0 mm 0.00 in0.0 mm 0.00 in0.0 mm
09:00 AM 61.2°F16.2°C 55.0°F12.8°C 80% 3.1 mph E5.0 kmh E 6.0 mph9.7 kmh 29.65 in1004.1 mb 0.00 in0.0 mm 0.00 in0.0 mm 0.00 in0.0 mm
09:10 AM 62.4°F16.9°C 54.0°F12.2°C 74% 2.2 mph NE3.5 kmh NE 6.0 mph9.7 kmh 29.66 in1004.4 mb 0.00 in0.0 mm 0.00 in0.0 mm 0.00 in0.0 mm
09:20 AM 63.5°F17.5°C 53.9°F12.2°C 71% 2.2 mph ESE3.5 kmh ESE 3.8 mph6.1 kmh 29.65 in1004.1 mb 0.00 in0.0 mm 0.00 in0.0 mm 0.00 in0.0 mm
09:30 AM 61.2°F16.2°C 52.5°F11.4°C 73% 3.8 mph NE6.1 kmh NE 6.0 mph9.7 kmh 29.65 in1004.1 mb 0.00 in0.0 mm 0.00 in0.0 mm 0.00 in0.0 mm
09:40 AM 61.2°F16.2°C 53.2°F11.8°C 75% 2.2 mph ENE3.5 kmh ENE 6.0 mph9.7 kmh 29.65 in1004.1 mb 0.00 in0.0 mm 0.00 in0.0 mm 0.00 in0.0 mm
09:50 AM 63.9°F17.7°C 54.3°F12.4°C 71% 2.2 mph ESE3.5 kmh ESE 4.5 mph7.2 kmh 29.65 in1004.1 mb 0.00 in0.0 mm 0.00 in0.0 mm 0.00 in0.0 mm
10:00 AM 63.7°F17.6°C 52.9°F11.6°C 68% 0.7 mph NE1.1 kmh NE 6.0 mph9.7 kmh 29.64 in1003.7 mb 0.00 in0.0 mm 0.00 in0.0 mm 0.00 in0.0 mm
10:10 AM 63.0°F17.2°C 53.0°F11.7°C 70% 3.8 mph NW6.1 kmh NW 7.6 mph12.2 kmh 29.64 in1003.7 mb 0.00 in0.0 mm 0.00 in0.0 mm 0.00 in0.0 mm
10:20 AM 66.2°F19.0°C 53.7°F12.1°C 64% 3.1 mph NE5.0 kmh NE 6.0 mph9.7 kmh 29.65 in1004.1 mb 0.00 in0.0 mm 0.00 in0.0 mm 0.00 in0.0 mm
10:30 AM 67.3°F19.6°C 53.8°F12.1°C 62% 1.6 mph E2.6 kmh E 5.4 mph8.7 kmh 29.65 in1004.1 mb 0.00 in0.0 mm 0.00 in0.0 mm 0.00 in0.0 mm
10:40 AM 68.5°F20.3°C 54.1°F12.3°C 60% 2.2 mph SE3.5 kmh SE 5.4 mph8.7 kmh 29.64 in1003.7 mb 0.00 in0.0 mm 0.00 in0.0 mm 0.00 in0.0 mm
10:50 AM 65.5°F18.6°C 52.1°F11.2°C 62% 2.2 mph SSW3.5 kmh SSW 4.5 mph7.2 kmh 29.64 in1003.7 mb 0.00 in0.0 mm 0.00 in0.0 mm 0.00 in0.0 mm
11:00 AM 62.4°F16.9°C 50.9°F10.5°C 66% 2.2 mph SE3.5 kmh SE 4.5 mph7.2 kmh 29.64 in1003.7 mb 0.00 in0.0 mm 0.00 in0.0 mm 0.00 in0.0 mm
11:10 AM 61.9°F16.6°C 52.0°F11.1°C 70% 1.6 mph E2.6 kmh E 3.1 mph5.0 kmh 29.64 in1003.7 mb 0.00 in0.0 mm 0.00 in0.0 mm 0.00 in0.0 mm
11:20 AM 63.5°F17.5°C 51.5°F10.8°C 65% 2.2 mph NNE3.5 kmh NNE 5.4 mph8.7 kmh 29.63 in1003.4 mb 0.00 in0.0 mm 0.00 in0.0 mm 0.00 in0.0 mm
11:30 AM 61.7°F16.5°C 52.2°F11.2°C 71% 1.6 mph NE2.6 kmh NE 4.5 mph7.2 kmh 29.63 in1003.4 mb 0.00 in0.0 mm 0.00 in0.0 mm 0.00 in0.0 mm
11:40 AM 61.5°F16.4°C 52.8°F11.6°C 73% 2.2 mph ENE3.5 kmh ENE 4.5 mph7.2 kmh 29.63 in1003.4 mb 0.00 in0.0 mm 0.00 in0.0 mm 0.00 in0.0 mm
11:50 AM 61.0°F16.1°C 52.6°F11.4°C 74% 1.6 mph ESE2.6 kmh ESE 3.8 mph6.1 kmh 29.64 in1003.7 mb 0.00 in0.0 mm 0.00 in0.0 mm 0.00 in0.0 mm
12:00 PM 61.7°F16.5°C 53.7°F12.1°C 75% 0.7 mph E1.1 kmh E 4.5 mph7.2 kmh 29.62 in1003.0 mb 0.00 in0.0 mm 0.00 in0.0 mm 0.00 in0.0 mm
12:10 PM 61.9°F16.6°C 53.5°F11.9°C 74% 1.6 mph ENE2.6 kmh ENE 3.8 mph6.1 kmh 29.62 in1003.0 mb 0.00 in0.0 mm 0.00 in0.0 mm 0.00 in0.0 mm
12:20 PM 60.6°F15.9°C 52.7°F11.5°C 75% 2.2 mph E3.5 kmh E 3.8 mph6.1 kmh 29.61 in1002.7 mb 0.00 in0.0 mm 0.00 in0.0 mm 0.00 in0.0 mm
12:30 PM 61.9°F16.6°C 54.2°F12.3°C 76% 1.6 mph E2.6 kmh E 3.8 mph6.1 kmh 29.62 in1003.0 mb 0.00 in0.0 mm 0.00 in0.0 mm 0.00 in0.0 mm
12:40 PM 62.6°F17.0°C 54.2°F12.3°C 74% 1.6 mph E2.6 kmh E 3.8 mph6.1 kmh 29.61 in1002.7 mb 0.00 in0.0 mm 0.00 in0.0 mm 0.00 in0.0 mm
12:50 PM 61.5°F16.4°C 53.2°F11.8°C 74% 3.1 mph E5.0 kmh E 4.5 mph7.2 kmh 29.60 in1002.4 mb 0.00 in0.0 mm 0.00 in0.0 mm 0.00 in0.0 mm
01:00 PM 59.5°F15.3°C 51.3°F10.7°C 74% 1.6 mph ESE2.6 kmh ESE 5.4 mph8.7 kmh 29.60 in1002.4 mb 0.00 in0.0 mm 0.00 in0.0 mm 0.00 in0.0 mm
01:10 PM 59.0°F15.0°C 52.2°F11.2°C 78% 0.7 mph NE1.1 kmh NE 3.1 mph5.0 kmh 29.59 in1002.0 mb 0.00 in0.0 mm 0.00 in0.0 mm 0.00 in0.0 mm
01:20 PM 59.4°F15.2°C 52.9°F11.6°C 79% 2.2 mph E3.5 kmh E 6.0 mph9.7 kmh 29.59 in1002.0 mb 0.00 in0.0 mm 0.00 in0.0 mm 0.00 in0.0 mm
01:30 PM 59.4°F15.2°C 52.9°F11.6°C 79% 3.8 mph E6.1 kmh E 6.0 mph9.7 kmh 29.59 in1002.0 mb 0.00 in0.0 mm 0.00 in0.0 mm 0.00 in0.0 mm
01:40 PM 59.4°F15.2°C 53.2°F11.8°C 80% 3.1 mph E5.0 kmh E 6.0 mph9.7 kmh 29.59 in1002.0 mb 0.00 in0.0 mm 0.00 in0.0 mm 0.00 in0.0 mm
01:50 PM 60.1°F15.6°C 53.6°F12.0°C 79% 1.6 mph E2.6 kmh E 3.8 mph6.1 kmh 29.59 in1002.0 mb 0.00 in0.0 mm 0.00 in0.0 mm 0.00 in0.0 mm
02:00 PM 59.5°F15.3°C 53.0°F11.7°C 79% 2.2 mph E3.5 kmh E 5.4 mph8.7 kmh 29.59 in1002.0 mb 0.00 in0.0 mm 0.00 in0.0 mm 0.00 in0.0 mm
02:10 PM 59.4°F15.2°C 52.9°F11.6°C 79% 1.6 mph ENE2.6 kmh ENE 4.5 mph7.2 kmh 29.58 in1001.7 mb 0.00 in0.0 mm 0.00 in0.0 mm 0.00 in0.0 mm
02:20 PM 59.2°F15.1°C 52.7°F11.5°C 79% 1.6 mph E2.6 kmh E 3.8 mph6.1 kmh 29.58 in1001.7 mb 0.00 in0.0 mm 0.00 in0.0 mm 0.00 in0.0 mm
02:30 PM 59.2°F15.1°C 53.0°F11.7°C 80% 1.6 mph E2.6 kmh E 4.5 mph7.2 kmh 29.58 in1001.7 mb 0.00 in0.0 mm 0.00 in0.0 mm 0.00 in0.0 mm
02:40 PM 59.2°F15.1°C 53.0°F11.7°C 80% 4.5 mph ENE7.2 kmh ENE 5.4 mph8.7 kmh 29.57 in1001.4 mb 0.00 in0.0 mm 0.00 in0.0 mm 0.00 in0.0 mm
02:50 PM 59.2°F15.1°C 53.0°F11.7°C 80% 3.8 mph E6.1 kmh E 5.4 mph8.7 kmh 29.57 in1001.4 mb 0.00 in0.0 mm 0.00 in0.0 mm 0.00 in0.0 mm
03:00 PM 59.4°F15.2°C 53.2°F11.8°C 80% 3.1 mph E5.0 kmh E 4.5 mph7.2 kmh 29.56 in1001.0 mb 0.00 in0.0 mm 0.00 in0.0 mm 0.00 in0.0 mm
03:10 PM 59.2°F15.1°C 52.7°F11.5°C 79% 2.2 mph E3.5 kmh E 3.8 mph6.1 kmh 29.55 in1000.7 mb 0.00 in0.0 mm 0.00 in0.0 mm 0.00 in0.0 mm
03:20 PM 59.0°F15.0°C 52.2°F11.2°C 78% 2.2 mph E3.5 kmh E 4.5 mph7.2 kmh 29.55 in1000.7 mb 0.00 in0.0 mm 0.00 in0.0 mm 0.00 in0.0 mm
03:30 PM 58.8°F14.9°C 52.3°F11.3°C 79% 2.2 mph ENE3.5 kmh ENE 4.5 mph7.2 kmh 29.54 in1000.3 mb 0.00 in0.0 mm 0.00 in0.0 mm 0.00 in0.0 mm
03:40 PM 58.5°F14.7°C 52.3°F11.3°C 80% 3.1 mph ENE5.0 kmh ENE 4.5 mph7.2 kmh 29.55 in1000.7 mb 0.00 in0.0 mm 0.00 in0.0 mm 0.00 in0.0 mm
03:50 PM 58.3°F14.6°C 52.1°F11.2°C 80% 3.1 mph ENE5.0 kmh ENE 5.4 mph8.7 kmh 29.54 in1000.3 mb 0.00 in0.0 mm 0.00 in0.0 mm 0.00 in0.0 mm
04:00 PM 57.9°F14.4°C 51.8°F11.0°C 80% 3.1 mph ENE5.0 kmh ENE 4.5 mph7.2 kmh 29.53 in1000.0 mb 0.00 in0.0 mm 0.00 in0.0 mm 0.00 in0.0 mm
04:10 PM 57.4°F14.1°C 51.9°F11.1°C 82% 2.2 mph E3.5 kmh E 3.8 mph6.1 kmh 29.53 in1000.0 mb 0.00 in0.0 mm 0.00 in0.0 mm 0.00 in0.0 mm
04:20 PM 56.8°F13.8°C 52.1°F11.2°C 84% 1.6 mph E2.6 kmh E 3.8 mph6.1 kmh 29.53 in1000.0 mb 0.00 in0.0 mm 0.00 in0.0 mm 0.00 in0.0 mm
04:30 PM 56.7°F13.7°C 52.5°F11.4°C 86% 1.6 mph E2.6 kmh E 3.1 mph5.0 kmh 29.53 in1000.0 mb 0.00 in0.0 mm 0.00 in0.0 mm 0.00 in0.0 mm
04:40 PM 56.5°F13.6°C 52.7°F11.5°C 87% 2.2 mph E3.5 kmh E 3.8 mph6.1 kmh 29.53 in1000.0 mb 0.00 in0.0 mm 0.00 in0.0 mm 0.00 in0.0 mm
04:50 PM 56.3°F13.5°C 52.5°F11.4°C 87% 3.1 mph E5.0 kmh E 3.8 mph6.1 kmh 29.52 in999.7 mb 0.00 in0.0 mm 0.00 in0.0 mm 0.00 in0.0 mm
05:00 PM 55.9°F13.3°C 51.8°F11.0°C 86% 3.1 mph E5.0 kmh E 6.0 mph9.7 kmh 29.52 in999.7 mb 0.00 in0.0 mm 0.00 in0.0 mm 0.00 in0.0 mm
05:10 PM 55.6°F13.1°C 51.5°F10.8°C 86% 3.1 mph E5.0 kmh E 3.8 mph6.1 kmh 29.52 in999.7 mb 0.00 in0.0 mm 0.00 in0.0 mm 0.00 in0.0 mm
05:20 PM 55.4°F13.0°C 51.9°F11.1°C 88% 1.6 mph ENE2.6 kmh ENE 3.8 mph6.1 kmh 29.50 in999.0 mb 0.00 in0.0 mm 0.00 in0.0 mm 0.00 in0.0 mm
05:30 PM 55.4°F13.0°C 51.9°F11.1°C 88% 1.6 mph ENE2.6 kmh ENE 3.8 mph6.1 kmh 29.50 in999.0 mb 0.00 in0.0 mm 0.00 in0.0 mm 0.00 in0.0 mm
05:40 PM 55.2°F12.9°C 52.0°F11.1°C 89% 1.6 mph ENE2.6 kmh ENE 3.1 mph5.0 kmh 29.50 in999.0 mb 0.00 in0.0 mm 0.00 in0.0 mm 0.00 in0.0 mm
05:50 PM 55.0°F12.8°C 52.2°F11.2°C 90% 1.6 mph NNE2.6 kmh NNE 3.1 mph5.0 kmh 29.49 in998.6 mb 0.00 in0.0 mm 0.00 in0.0 mm 0.00 in0.0 mm
06:00 PM 55.0°F12.8°C 52.5°F11.4°C 91% 3.1 mph ENE5.0 kmh ENE 4.5 mph7.2 kmh 29.49 in998.6 mb 0.00 in0.0 mm 0.00 in0.0 mm 0.00 in0.0 mm
06:10 PM 54.9°F12.7°C 52.3°F11.3°C 91% 3.1 mph E5.0 kmh E 4.5 mph7.2 kmh 29.48 in998.3 mb 0.00 in0.0 mm 0.00 in0.0 mm 0.00 in0.0 mm
06:20 PM 54.7°F12.6°C 52.1°F11.2°C 91% 3.1 mph E5.0 kmh E 4.5 mph7.2 kmh 29.48 in998.3 mb 0.00 in0.0 mm 0.00 in0.0 mm 0.00 in0.0 mm
06:30 PM 54.1°F12.3°C 52.5°F11.4°C 94% 2.2 mph E3.5 kmh E 4.5 mph7.2 kmh 29.47 in998.0 mb 0.00 in0.0 mm 0.00 in0.0 mm 0.00 in0.0 mm
06:40 PM 54.0°F12.2°C 52.6°F11.4°C 95% 1.6 mph E2.6 kmh E 3.1 mph5.0 kmh 29.47 in998.0 mb 0.00 in0.0 mm 0.00 in0.0 mm 0.00 in0.0 mm
06:50 PM 54.0°F12.2°C 52.9°F11.6°C 96% 0.7 mph NE1.1 kmh NE 2.2 mph3.5 kmh 29.46 in997.6 mb 0.00 in0.0 mm 0.00 in0.0 mm 0.00 in0.0 mm
07:00 PM 54.0°F12.2°C 53.1°F11.7°C 97% 1.6 mph E2.6 kmh E 3.1 mph5.0 kmh 29.46 in997.6 mb 0.00 in0.0 mm 0.00 in0.0 mm 0.00 in0.0 mm
07:10 PM 54.0°F12.2°C 53.1°F11.7°C 97% 2.2 mph SSW3.5 kmh SSW 3.8 mph6.1 kmh 29.46 in997.6 mb 0.00 in0.0 mm 0.00 in0.0 mm 0.00 in0.0 mm
07:20 PM 54.0°F12.2°C 53.4°F11.9°C 98% 2.2 mph ENE3.5 kmh ENE 3.8 mph6.1 kmh 29.45 in997.3 mb 0.00 in0.0 mm 0.00 in0.0 mm 0.00 in0.0 mm
07:30 PM 54.0°F12.2°C 53.4°F11.9°C 98% 2.2 mph ENE3.5 kmh ENE 3.8 mph6.1 kmh 29.44 in997.0 mb 0.00 in0.0 mm 0.00 in0.0 mm 0.00 in0.0 mm
07:40 PM 53.8°F12.1°C 53.2°F11.8°C 98% 1.6 mph ENE2.6 kmh ENE 3.8 mph6.1 kmh 29.44 in997.0 mb 0.00 in0.0 mm 0.00 in0.0 mm 0.00 in0.0 mm
07:50 PM 53.8°F12.1°C 53.5°F11.9°C 99% 0.7 mph ENE1.1 kmh ENE 3.1 mph5.0 kmh 29.43 in996.6 mb 0.00 in0.0 mm 0.00 in0.0 mm 0.00 in0.0 mm
08:00 PM 53.8°F12.1°C 53.5°F11.9°C 99% 0.7 mph ENE1.1 kmh ENE 3.1 mph5.0 kmh 29.43 in996.6 mb 0.00 in0.0 mm 0.00 in0.0 mm 0.00 in0.0 mm
08:10 PM 53.8°F12.1°C 53.5°F11.9°C 99% 0.7 mph NE1.1 kmh NE 3.8 mph6.1 kmh 29.43 in996.6 mb 0.00 in0.0 mm 0.00 in0.0 mm 0.00 in0.0 mm
08:20 PM 53.8°F12.1°C 53.5°F11.9°C 99% 1.6 mph ENE2.6 kmh ENE 3.1 mph5.0 kmh 29.41 in995.9 mb 0.00 in0.0 mm 0.00 in0.0 mm 0.00 in0.0 mm
08:30 PM 53.8°F12.1°C 53.5°F11.9°C 99% 1.6 mph E2.6 kmh E 3.8 mph6.1 kmh 29.41 in995.9 mb 0.00 in0.0 mm 0.00 in0.0 mm 0.00 in0.0 mm
08:40 PM 53.8°F12.1°C 53.5°F11.9°C 99% 1.6 mph NE2.6 kmh NE 3.8 mph6.1 kmh 29.40 in995.6 mb 0.00 in0.0 mm 0.00 in0.0 mm 0.00 in0.0 mm
08:50 PM 53.8°F12.1°C 53.5°F11.9°C 99% 2.2 mph E3.5 kmh E 3.1 mph5.0 kmh 29.40 in995.6 mb 0.00 in0.0 mm 0.00 in0.0 mm 0.00 in0.0 mm
09:00 PM 53.8°F12.1°C 53.5°F11.9°C 99% 0.7 mph NE1.1 kmh NE 3.1 mph5.0 kmh 29.39 in995.3 mb 0.00 in0.0 mm 0.00 in0.0 mm 0.00 in0.0 mm
09:10 PM 53.6°F12.0°C 53.3°F11.8°C 99% 1.6 mph E2.6 kmh E 2.2 mph3.5 kmh 29.38 in994.9 mb 0.00 in0.0 mm 0.00 in0.0 mm 0.00 in0.0 mm
09:20 PM 53.6°F12.0°C 53.3°F11.8°C 99% 0.7 mph NE1.1 kmh NE 3.1 mph5.0 kmh 29.38 in994.9 mb 0.00 in0.0 mm 0.00 in0.0 mm 0.00 in0.0 mm
09:30 PM 53.6°F12.0°C 53.3°F11.8°C 99% 1.6 mph ENE2.6 kmh ENE 3.1 mph5.0 kmh 29.38 in994.9 mb 0.00 in0.0 mm 0.00 in0.0 mm 0.00 in0.0 mm
09:40 PM 53.6°F12.0°C 53.3°F11.8°C 99% 0.7 mph NE1.1 kmh NE 2.2 mph3.5 kmh 29.37 in994.6 mb 0.00 in0.0 mm 0.00 in0.0 mm 0.00 in0.0 mm
09:50 PM 53.6°F12.0°C 53.3°F11.8°C 99% 1.6 mph NE2.6 kmh NE 3.8 mph6.1 kmh 29.36 in994.2 mb 0.00 in0.0 mm 0.00 in0.0 mm 0.00 in0.0 mm
10:00 PM 54.0°F12.2°C 53.7°F12.1°C 99% 0.7 mph NE1.1 kmh NE 3.8 mph6.1 kmh 29.35 in993.9 mb 0.00 in0.0 mm 0.00 in0.0 mm 0.00 in0.0 mm
10:10 PM 54.1°F12.3°C 53.9°F12.2°C 99% 1.6 mph NE2.6 kmh NE 2.2 mph3.5 kmh 29.35 in993.9 mb 0.00 in0.0 mm 0.00 in0.0 mm 0.00 in0.0 mm
10:20 PM 54.3°F12.4°C 54.1°F12.3°C 99% 1.6 mph E2.6 kmh E 3.1 mph5.0 kmh 29.34 in993.6 mb 0.00 in0.0 mm 0.00 in0.0 mm 0.00 in0.0 mm
10:30 PM 54.3°F12.4°C 54.1°F12.3°C 99% 0.7 mph NE1.1 kmh NE 3.1 mph5.0 kmh 29.34 in993.6 mb 0.00 in0.0 mm 0.00 in0.0 mm 0.00 in0.0 mm
10:40 PM 54.5°F12.5°C 54.2°F12.3°C 99% 1.6 mph NE2.6 kmh NE 3.1 mph5.0 kmh 29.34 in993.6 mb 0.00 in0.0 mm 0.00 in0.0 mm 0.00 in0.0 mm
10:50 PM 54.5°F12.5°C 54.2°F12.3°C 99% 1.6 mph NE2.6 kmh NE 3.8 mph6.1 kmh 29.33 in993.2 mb 0.00 in0.0 mm 0.00 in0.0 mm 0.00 in0.0 mm
11:00 PM 54.7°F12.6°C 54.4°F12.4°C 99% 2.2 mph ENE3.5 kmh ENE 5.4 mph8.7 kmh 29.33 in993.2 mb 0.00 in0.0 mm 0.00 in0.0 mm 0.00 in0.0 mm
11:10 PM 54.9°F12.7°C 54.6°F12.6°C 99% 2.2 mph NE3.5 kmh NE 3.8 mph6.1 kmh 29.32 in992.9 mb 0.00 in0.0 mm 0.00 in0.0 mm 0.00 in0.0 mm
11:20 PM 54.9°F12.7°C 54.6°F12.6°C 99% 2.2 mph E3.5 kmh E 3.8 mph6.1 kmh 29.32 in992.9 mb 0.00 in0.0 mm 0.00 in0.0 mm 0.00 in0.0 mm
11:30 PM 55.0°F12.8°C 54.8°F12.7°C 99% 2.2 mph E3.5 kmh E 3.1 mph5.0 kmh 29.31 in992.6 mb 0.00 in0.0 mm 0.00 in0.0 mm 0.00 in0.0 mm
11:40 PM 55.2°F12.9°C 55.0°F12.8°C 99% 1.6 mph ESE2.6 kmh ESE 3.8 mph6.1 kmh 29.31 in992.6 mb 0.00 in0.0 mm 0.00 in0.0 mm 0.00 in0.0 mm
11:50 PM 55.2°F12.9°C 55.0°F12.8°C 99% 2.2 mph E3.5 kmh E 3.8 mph6.1 kmh 29.30 in992.2 mb 0.00 in0.0 mm 0.00 in0.0 mm 0.00 in0.0 mm